createdAt,value
2018-02-14T00:02:17.652Z,71.20
2018-02-14T00:04:45.194Z,71.00
2018-02-14T00:07:12.720Z,70.40
2018-02-14T00:09:40.224Z,71.10
2018-02-14T00:12:07.783Z,70.80
2018-02-14T00:14:35.303Z,70.70
2018-02-14T00:17:02.852Z,70.70
2018-02-14T00:19:30.428Z,70.90
2018-02-14T00:21:57.932Z,71.10
2018-02-14T00:24:25.488Z,71.00
2018-02-14T00:26:52.987Z,70.80
2018-02-14T00:29:20.539Z,70.80
2018-02-14T00:31:48.070Z,70.60
2018-02-14T00:34:15.584Z,70.70
2018-02-14T00:36:43.088Z,70.60
2018-02-14T00:39:10.637Z,71.00
2018-02-14T00:41:38.160Z,71.00
2018-02-14T00:44:05.700Z,71.00
2018-02-14T00:46:33.992Z,70.70
2018-02-14T00:49:01.501Z,70.70
2018-02-14T00:51:29.051Z,70.60
2018-02-14T00:53:56.565Z,70.60
2018-02-14T00:56:24.119Z,71.00
2018-02-14T00:58:51.660Z,70.80
2018-02-14T01:01:19.192Z,70.90
2018-02-14T01:03:46.712Z,71.20
2018-02-14T01:06:14.229Z,71.00
2018-02-14T01:08:41.788Z,71.10
2018-02-14T01:11:09.320Z,71.00
2018-02-14T01:13:36.834Z,71.10
2018-02-14T01:16:04.356Z,71.10
2018-02-14T01:18:50.630Z,71.10
2018-02-14T01:21:18.146Z,71.20
2018-02-14T01:23:46.462Z,71.40
2018-02-14T01:26:13.959Z,71.30
2018-02-14T01:28:41.475Z,71.20
2018-02-14T01:31:08.987Z,71.20
2018-02-14T01:33:36.498Z,71.30
2018-02-14T01:36:04.023Z,71.60
2018-02-14T01:38:31.535Z,71.50
2018-02-14T01:40:59.055Z,71.60
2018-02-14T01:43:27.328Z,71.40
2018-02-14T01:45:54.852Z,71.30
2018-02-14T01:48:22.391Z,71.50
2018-02-14T01:50:49.912Z,71.50
2018-02-14T01:53:17.466Z,71.30
2018-02-14T01:55:44.996Z,71.40
2018-02-14T01:58:12.504Z,71.30
2018-02-14T02:00:40.023Z,71.40
2018-02-14T02:03:07.553Z,71.60
2018-02-14T02:05:35.088Z,71.60
2018-02-14T02:08:02.586Z,71.50
2018-02-14T02:10:30.090Z,71.40
2018-02-14T02:12:57.631Z,71.50
2018-02-14T02:15:25.208Z,71.40
2018-02-14T02:17:52.755Z,71.70
2018-02-14T02:20:20.308Z,71.60
2018-02-14T02:22:47.813Z,71.70
2018-02-14T02:25:15.364Z,71.70
2018-02-14T02:27:42.869Z,71.70
2018-02-14T02:30:10.414Z,71.70
2018-02-14T02:32:37.953Z,71.50
2018-02-14T02:35:05.478Z,71.50
2018-02-14T02:37:34.526Z,71.60
2018-02-14T02:40:13.845Z,71.50
2018-02-14T02:42:41.385Z,71.60
2018-02-14T02:45:08.903Z,71.50
2018-02-14T02:47:36.427Z,71.60
2018-02-14T02:50:03.944Z,71.70
2018-02-14T02:52:31.496Z,71.70
2018-02-14T02:55:00.518Z,72.10
2018-02-14T02:57:28.794Z,72.20
2018-02-14T02:59:56.337Z,72.10
2018-02-14T03:02:23.880Z,72.20
2018-02-14T03:04:51.400Z,72.20
2018-02-14T03:07:18.959Z,72.10
2018-02-14T03:09:46.494Z,72.30
2018-02-14T03:12:14.039Z,72.30
2018-02-14T03:14:41.575Z,72.40
2018-02-14T03:17:09.128Z,72.20
2018-02-14T03:19:36.640Z,72.30
2018-02-14T03:22:04.201Z,72.40
2018-02-14T03:24:32.496Z,72.70
2018-02-14T03:27:00.037Z,72.70
2018-02-14T03:29:27.648Z,72.70
2018-02-14T03:31:55.162Z,72.70
2018-02-14T03:34:22.712Z,72.90
2018-02-14T03:36:50.257Z,72.80
2018-02-14T03:39:17.847Z,73.80
2018-02-14T03:41:45.370Z,72.90
2018-02-14T03:44:12.889Z,73.00
2018-02-14T03:46:40.400Z,73.40
2018-02-14T03:49:07.901Z,73.40
2018-02-14T03:51:35.426Z,73.40
2018-02-14T03:54:02.945Z,73.50
2018-02-14T03:56:30.447Z,73.60
2018-02-14T03:58:57.966Z,73.40
2018-02-14T04:01:25.459Z,73.60
2018-02-14T04:03:53.048Z,73.60
2018-02-14T04:06:20.553Z,73.70
2018-02-14T04:08:48.069Z,73.80
2018-02-14T04:11:16.402Z,74.20
2018-02-14T04:13:43.945Z,74.20
2018-02-14T04:16:11.467Z,74.70
2018-02-14T04:18:39.737Z,74.70
2018-02-14T04:21:08.043Z,75.50
2018-02-14T04:23:35.551Z,75.40
2018-02-14T04:26:03.228Z,75.20
2018-02-14T04:28:30.759Z,75.20
2018-02-14T04:30:58.276Z,74.80
2018-02-14T04:33:26.553Z,75.10
2018-02-14T04:35:54.093Z,75.00
2018-02-14T04:38:21.594Z,76.00
2018-02-14T04:40:49.883Z,75.60
2018-02-14T04:43:17.388Z,75.50
2018-02-14T04:45:44.949Z,75.70
2018-02-14T04:48:12.458Z,76.70
2018-02-14T04:50:39.979Z,75.60
2018-02-14T04:53:08.330Z,75.70
2018-02-14T04:55:35.818Z,75.60
2018-02-14T04:58:03.349Z,75.60
2018-02-14T05:00:30.848Z,75.40
2018-02-14T05:02:59.120Z,75.20
2018-02-14T05:05:26.647Z,75.20
2018-02-14T05:07:54.163Z,75.50
2018-02-14T05:10:21.661Z,75.40
2018-02-14T05:12:49.155Z,75.50
2018-02-14T05:15:17.435Z,75.30
2018-02-14T05:17:45.015Z,75.20
2018-02-14T05:20:12.584Z,75.20
2018-02-14T05:22:40.091Z,75.10
2018-02-14T05:25:07.585Z,75.30
2018-02-14T05:27:35.855Z,75.10
2018-02-14T05:30:03.352Z,75.10
2018-02-14T05:32:30.855Z,75.30
2018-02-14T05:34:58.379Z,75.20
2018-02-14T05:37:25.867Z,75.00
2018-02-14T05:39:53.371Z,75.30
2018-02-14T05:42:20.863Z,75.20
2018-02-14T05:44:48.377Z,75.40
2018-02-14T05:47:15.889Z,75.10
2018-02-14T05:49:43.404Z,75.10
2018-02-14T05:52:10.920Z,75.00
2018-02-14T05:54:38.428Z,75.00
2018-02-14T05:57:06.021Z,74.80
2018-02-14T05:59:33.571Z,74.60
2018-02-14T06:02:01.080Z,74.50
2018-02-14T06:04:28.572Z,74.60
2018-02-14T06:06:56.082Z,74.60
2018-02-14T06:09:23.607Z,74.70
2018-02-14T06:11:51.104Z,74.60
2018-02-14T06:14:18.600Z,74.60
2018-02-14T06:16:46.880Z,74.60
2018-02-14T06:19:14.376Z,74.60
2018-02-14T06:21:41.882Z,74.60
2018-02-14T06:24:10.150Z,74.60
2018-02-14T06:26:37.661Z,74.60
2018-02-14T06:29:05.156Z,74.70
2018-02-14T06:31:32.654Z,74.40
2018-02-14T06:34:00.931Z,74.60
2018-02-14T06:36:28.451Z,73.90
2018-02-14T06:38:55.945Z,74.70
2018-02-14T06:41:24.267Z,75.20
2018-02-14T06:43:51.780Z,75.20
2018-02-14T06:46:20.122Z,75.10
2018-02-14T06:48:47.745Z,75.10
2018-02-14T06:51:15.234Z,75.00
2018-02-14T06:53:42.778Z,75.20
2018-02-14T06:56:10.300Z,75.30
2018-02-14T06:58:38.576Z,75.80
2018-02-14T07:01:06.089Z,75.80
2018-02-14T07:03:33.612Z,75.70
2018-02-14T07:06:01.144Z,75.30
2018-02-14T07:08:28.658Z,75.20
2018-02-14T07:10:56.208Z,75.20
2018-02-14T07:13:23.718Z,75.30
2018-02-14T07:15:51.241Z,76.20
2018-02-14T07:18:18.742Z,75.70
2018-02-14T07:20:46.268Z,75.50
2018-02-14T07:23:14.409Z,75.60
2018-02-14T07:25:41.937Z,75.40
2018-02-14T07:28:09.455Z,75.30
2018-02-14T07:30:36.971Z,75.30
2018-02-14T07:33:04.604Z,75.10
2018-02-14T07:35:32.176Z,74.90
2018-02-14T07:37:59.715Z,74.70
2018-02-14T07:40:27.244Z,74.40
2018-02-14T07:42:54.853Z,74.50
2018-02-14T07:45:22.368Z,74.40
2018-02-14T07:47:49.913Z,74.40
2018-02-14T07:50:17.407Z,73.90
2018-02-14T07:52:44.925Z,74.50
2018-02-14T07:55:13.220Z,73.30
2018-02-14T07:57:40.757Z,73.30
2018-02-14T08:00:09.029Z,72.20
2018-02-14T08:02:36.564Z,72.20
2018-02-14T08:05:04.059Z,71.20
2018-02-14T08:07:32.337Z,68.90
2018-02-14T08:09:59.839Z,68.80
2018-02-14T08:12:27.352Z,67.00
2018-02-14T08:14:55.607Z,65.90
2018-02-14T08:17:23.103Z,65.90
2018-02-14T08:19:50.617Z,65.30
2018-02-14T08:22:18.120Z,65.20
2018-02-14T08:24:45.685Z,63.60
2018-02-14T08:27:13.954Z,60.70
2018-02-14T08:29:42.233Z,60.40
2018-02-14T08:32:10.509Z,59.90
2018-02-14T08:34:37.990Z,59.90
2018-02-14T08:37:05.572Z,61.00
2018-02-14T08:39:33.076Z,59.10
2018-02-14T08:42:00.606Z,58.50
2018-02-14T08:44:28.108Z,56.80
2018-02-14T08:46:55.684Z,56.40
2018-02-14T08:49:23.221Z,56.60
2018-02-14T08:51:51.504Z,56.30
2018-02-14T08:54:19.013Z,56.30
2018-02-14T08:56:46.489Z,55.60
2018-02-14T08:59:14.024Z,56.30
2018-02-14T09:01:41.524Z,56.60
2018-02-14T09:04:09.017Z,56.40
2018-02-14T09:06:36.532Z,55.80
2018-02-14T09:09:04.040Z,54.70
2018-02-14T09:11:31.546Z,54.10
2018-02-14T09:13:59.042Z,52.60
2018-02-14T09:16:26.568Z,54.50
2018-02-14T09:18:54.078Z,53.40
2018-02-14T09:21:21.616Z,52.70
2018-02-14T09:23:49.192Z,52.50
2018-02-14T09:26:17.459Z,52.30
2018-02-14T09:28:45.040Z,52.30
2018-02-14T09:31:13.294Z,50.80
2018-02-14T09:33:40.782Z,50.80
2018-02-14T09:36:08.286Z,51.30
2018-02-14T09:38:35.789Z,50.20
2018-02-14T09:41:03.356Z,50.50
2018-02-14T09:43:30.939Z,51.60
2018-02-14T09:45:58.408Z,49.50
2018-02-14T09:48:25.908Z,48.30
2018-02-14T09:50:53.404Z,50.10
2018-02-14T09:53:20.911Z,49.50
2018-02-14T09:55:48.407Z,48.30
2018-02-14T09:58:15.912Z,48.80
2018-02-14T10:00:43.421Z,49.60
2018-02-14T10:03:10.913Z,49.00
2018-02-14T10:05:38.411Z,49.40
2018-02-14T10:08:05.912Z,49.20
2018-02-14T10:10:34.201Z,48.70
2018-02-14T10:13:01.690Z,48.70
2018-02-14T10:15:29.190Z,49.20
2018-02-14T10:17:56.739Z,49.50
2018-02-14T10:20:24.247Z,49.20
2018-02-14T10:22:51.835Z,50.00
2018-02-14T10:25:19.335Z,49.00
2018-02-14T10:27:47.615Z,49.30
2018-02-14T10:30:15.128Z,49.20
2018-02-14T10:32:42.635Z,49.40
2018-02-14T10:35:10.943Z,49.60
2018-02-14T10:37:38.447Z,49.50
2018-02-14T10:40:05.943Z,49.70
2018-02-14T10:42:33.476Z,50.30
2018-02-14T10:45:01.016Z,48.60
2018-02-14T10:47:28.534Z,49.30
2018-02-14T10:49:56.043Z,48.90
2018-02-14T10:52:23.534Z,48.70
2018-02-14T10:54:51.807Z,47.90
2018-02-14T10:57:19.303Z,47.90
2018-02-14T10:59:46.802Z,47.40
2018-02-14T11:02:14.297Z,46.60
2018-02-14T11:04:48.130Z,46.20
2018-02-14T11:07:18.427Z,46.20
2018-02-14T11:09:46.679Z,47.40
2018-02-14T11:12:14.165Z,47.30
2018-02-14T11:14:41.687Z,47.70
2018-02-14T11:17:09.195Z,45.90
2018-02-14T11:19:36.700Z,45.60
2018-02-14T11:22:04.207Z,47.10
2018-02-14T11:24:31.695Z,48.10
2018-02-14T11:26:59.228Z,47.10
2018-02-14T11:29:26.725Z,48.50
2018-02-14T11:31:54.233Z,46.50
2018-02-14T11:34:22.480Z,45.40
2018-02-14T11:36:49.967Z,45.40
2018-02-14T11:39:17.477Z,46.30
2018-02-14T11:41:44.975Z,46.70
2018-02-14T11:44:12.480Z,46.70
2018-02-14T11:46:39.976Z,47.40
2018-02-14T11:49:07.477Z,45.90
2018-02-14T11:51:35.042Z,46.30
2018-02-14T11:54:02.586Z,46.00
2018-02-14T11:56:30.839Z,45.50
2018-02-14T11:58:58.319Z,45.50
2018-02-14T12:01:25.832Z,45.00
2018-02-14T12:03:53.322Z,45.90
2018-02-14T12:06:20.817Z,44.50
2018-02-14T12:08:49.083Z,43.90
2018-02-14T12:11:16.576Z,43.80
2018-02-14T12:13:44.062Z,43.70
2018-02-14T12:16:11.559Z,43.90
2018-02-14T12:18:39.084Z,44.30
2018-02-14T12:21:06.579Z,44.80
2018-02-14T12:23:34.062Z,43.70
2018-02-14T12:26:01.618Z,45.00
2018-02-14T12:28:29.135Z,45.60
2018-02-14T12:30:56.631Z,46.00
2018-02-14T12:33:24.903Z,46.20
2018-02-14T12:35:52.382Z,46.20
2018-02-14T12:38:19.916Z,46.90
2018-02-14T12:40:47.734Z,47.00
2018-02-14T12:43:15.260Z,46.00
2018-02-14T12:45:42.780Z,46.00
2018-02-14T12:48:10.300Z,46.10
2018-02-14T12:50:37.819Z,46.30
2018-02-14T12:53:06.093Z,47.10
2018-02-14T12:55:33.613Z,47.10
2018-02-14T12:58:01.121Z,47.40
2018-02-14T13:00:29.402Z,47.70
2018-02-14T13:02:56.893Z,47.60
2018-02-14T13:05:24.402Z,46.30
2018-02-14T13:07:51.907Z,47.00
2018-02-14T13:10:19.397Z,48.10
2018-02-14T13:12:46.953Z,47.40
2018-02-14T13:15:14.494Z,47.90
2018-02-14T13:17:42.025Z,47.60
2018-02-14T13:20:10.292Z,48.00
2018-02-14T13:22:37.788Z,48.00
2018-02-14T13:25:05.322Z,48.60
2018-02-14T13:27:33.598Z,47.90
2018-02-14T13:30:01.087Z,47.80
2018-02-14T13:32:28.588Z,47.60
2018-02-14T13:34:56.132Z,47.80
2018-02-14T13:37:23.667Z,48.20
2018-02-14T13:39:51.190Z,48.10
2018-02-14T13:42:18.723Z,48.10
2018-02-14T13:44:46.224Z,48.30
2018-02-14T13:47:14.483Z,47.80
2018-02-14T13:49:41.989Z,47.80
2018-02-14T13:52:09.481Z,48.60
2018-02-14T13:54:36.986Z,48.70
2018-02-14T13:57:05.241Z,48.50
2018-02-14T13:59:34.723Z,47.80
2018-02-14T14:02:02.234Z,48.20
2018-02-14T14:04:29.719Z,48.00
2018-02-14T14:06:57.226Z,48.60
2018-02-14T14:09:25.522Z,48.30
2018-02-14T14:11:53.770Z,47.80
2018-02-14T14:14:21.255Z,47.80
2018-02-14T14:16:49.527Z,48.20
2018-02-14T14:19:17.814Z,48.20
2018-02-14T14:21:46.093Z,48.90
2018-02-14T14:24:14.341Z,48.30
2018-02-14T14:26:41.836Z,48.30
2018-02-14T14:29:09.350Z,48.70
2018-02-14T14:31:36.836Z,48.30
2018-02-14T14:34:05.094Z,48.50
2018-02-14T14:36:32.623Z,48.50
2018-02-14T14:39:00.137Z,48.70
2018-02-14T14:41:27.672Z,48.80
2018-02-14T14:43:55.216Z,48.50
2018-02-14T14:46:22.719Z,48.30
2018-02-14T14:48:50.252Z,49.00
2018-02-14T14:51:17.748Z,48.60
2018-02-14T14:53:46.010Z,49.20
2018-02-14T14:56:13.528Z,49.10
2018-02-14T14:58:41.035Z,49.70
2018-02-14T15:01:08.528Z,49.60
2018-02-14T15:03:36.042Z,49.70
2018-02-14T15:06:03.610Z,49.40
2018-02-14T15:08:31.115Z,50.10
2018-02-14T15:10:58.598Z,50.20
2018-02-14T15:13:26.109Z,50.50
2018-02-14T15:15:53.663Z,50.70
2018-02-14T15:18:21.177Z,50.70
2018-02-14T15:20:48.692Z,51.10
2018-02-14T15:23:16.250Z,51.60
2018-02-14T15:25:44.033Z,51.60
2018-02-14T15:28:11.610Z,51.70
2018-02-14T15:30:39.180Z,52.00
2018-02-14T15:33:06.724Z,52.00
2018-02-14T15:35:34.253Z,52.30
2018-02-14T15:38:02.525Z,52.20
2018-02-14T15:40:30.818Z,52.50
2018-02-14T15:42:58.324Z,52.40
2018-02-14T15:45:25.825Z,52.80
2018-02-14T15:47:54.104Z,53.40
2018-02-14T15:50:21.601Z,53.40
2018-02-14T15:52:49.091Z,53.00
2018-02-14T15:55:16.586Z,53.10
2018-02-14T15:57:44.863Z,53.70
2018-02-14T16:00:12.354Z,53.70
2018-02-14T16:02:39.901Z,53.70
2018-02-14T16:05:07.396Z,53.60
2018-02-14T16:07:34.897Z,54.10
2018-02-14T16:10:02.425Z,54.50
2018-02-14T16:12:29.906Z,54.70
2018-02-14T16:14:57.414Z,54.90
2018-02-14T16:17:24.903Z,54.80
2018-02-14T16:19:52.426Z,55.30
2018-02-14T16:22:19.914Z,55.20
2018-02-14T16:24:48.024Z,55.40
2018-02-14T16:27:16.330Z,55.90
2018-02-14T16:29:43.811Z,55.90
2018-02-14T16:32:11.803Z,55.70
2018-02-14T16:34:39.296Z,56.30
2018-02-14T16:37:07.564Z,57.20
2018-02-14T16:39:35.077Z,56.60
2018-02-14T16:42:08.371Z,56.80
2018-02-14T16:44:40.988Z,56.70
2018-02-14T16:47:08.489Z,57.10
2018-02-14T16:49:35.987Z,57.00
2018-02-14T16:52:03.510Z,57.40
2018-02-14T16:54:31.000Z,58.00
2018-02-14T16:56:58.660Z,58.10
2018-02-14T16:59:26.156Z,57.70
2018-02-14T17:01:54.475Z,57.80
2018-02-14T17:04:21.976Z,57.80
2018-02-14T17:06:49.456Z,57.70
2018-02-14T17:09:17.736Z,58.10
2018-02-14T17:11:45.233Z,58.10
2018-02-14T17:14:12.720Z,58.30
2018-02-14T17:16:40.301Z,61.10
2018-02-14T17:19:07.798Z,58.80
2018-02-14T17:21:35.303Z,58.60
2018-02-14T17:24:02.814Z,58.90
2018-02-14T17:26:30.302Z,59.00
2018-02-14T17:28:57.794Z,59.20
2018-02-14T17:31:25.298Z,59.70
2018-02-14T17:33:52.785Z,59.90
2018-02-14T17:36:20.263Z,60.00
2018-02-14T17:38:47.899Z,60.00
2018-02-14T17:41:15.392Z,60.00
2018-02-14T17:43:42.973Z,60.10
2018-02-14T17:46:10.466Z,60.10
2018-02-14T17:48:37.978Z,60.00
2018-02-14T17:51:07.007Z,60.00
2018-02-14T17:53:34.597Z,60.00
2018-02-14T17:56:02.181Z,59.80
2018-02-14T17:58:31.193Z,60.00
2018-02-14T18:00:58.711Z,60.00
2018-02-14T18:03:26.368Z,59.80
2018-02-14T18:05:53.892Z,59.90
2018-02-14T18:08:21.425Z,60.00
2018-02-14T18:10:48.971Z,60.20
2018-02-14T18:13:16.473Z,60.30
2018-02-14T18:15:44.009Z,60.30
2018-02-14T18:18:11.500Z,60.40
2018-02-14T18:20:39.203Z,60.80
2018-02-14T18:23:07.745Z,60.80
2018-02-14T18:25:36.049Z,60.90
2018-02-14T18:28:04.531Z,60.90
2018-02-14T18:30:32.047Z,60.80
2018-02-14T18:32:59.536Z,61.30
2018-02-14T18:35:27.035Z,61.30
2018-02-14T18:37:54.580Z,61.50
2018-02-14T18:40:22.083Z,61.50
2018-02-14T18:42:49.567Z,61.80
2018-02-14T18:45:17.896Z,61.90
2018-02-14T18:47:45.417Z,61.90
2018-02-14T18:50:13.720Z,62.00
2018-02-14T18:52:41.220Z,62.00
2018-02-14T18:55:08.747Z,62.30
2018-02-14T18:57:36.250Z,62.20
2018-02-14T19:00:03.776Z,62.20
2018-02-14T19:02:31.292Z,62.60
2018-02-14T19:04:58.795Z,62.30
2018-02-14T19:07:26.301Z,62.60
2018-02-14T19:09:54.603Z,62.50
2018-02-14T19:12:22.991Z,62.30
2018-02-14T19:14:50.549Z,62.70
2018-02-14T19:17:18.048Z,62.20
2018-02-14T19:19:45.561Z,63.20
2018-02-14T19:22:13.176Z,62.30
2018-02-14T19:24:40.684Z,62.10
2018-02-14T19:27:08.188Z,62.00
2018-02-14T19:29:35.696Z,62.10
2018-02-14T19:32:03.213Z,62.00
2018-02-14T19:34:30.735Z,61.60
2018-02-14T19:36:58.237Z,61.60
2018-02-14T19:39:25.766Z,61.50
2018-02-14T19:41:53.298Z,61.50
2018-02-14T19:44:20.790Z,61.00
2018-02-14T19:46:48.351Z,61.00
2018-02-14T19:49:15.916Z,60.90
2018-02-14T19:51:43.419Z,60.80
2018-02-14T19:54:11.695Z,60.30
2018-02-14T19:56:40.037Z,59.90
2018-02-14T19:59:07.572Z,59.80
2018-02-14T20:01:35.097Z,60.10
2018-02-14T20:04:02.596Z,59.90
2018-02-14T20:06:30.112Z,60.00
2018-02-14T20:08:57.642Z,60.80
2018-02-14T20:11:25.175Z,60.50
2018-02-14T20:13:52.830Z,60.60
2018-02-14T20:16:20.370Z,60.70
2018-02-14T20:18:48.678Z,60.30
2018-02-14T20:21:16.195Z,60.20
2018-02-14T20:23:44.457Z,60.70
2018-02-14T20:26:11.982Z,59.90
2018-02-14T20:28:39.527Z,59.70
2018-02-14T20:31:07.078Z,59.20
2018-02-14T20:33:34.645Z,59.00
2018-02-14T20:36:02.186Z,59.20
2018-02-14T20:38:30.477Z,58.80
2018-02-14T20:40:58.004Z,58.70
2018-02-14T20:43:25.537Z,58.60
2018-02-14T20:45:54.918Z,58.60
2018-02-14T20:48:22.482Z,58.80
2018-02-14T20:50:49.985Z,58.90
2018-02-14T20:53:18.590Z,59.00
2018-02-14T20:55:46.973Z,59.00
2018-02-14T20:58:14.516Z,58.90
2018-02-14T21:00:42.040Z,59.00
2018-02-14T21:03:09.718Z,59.20
2018-02-14T21:05:37.404Z,59.50
2018-02-14T21:08:04.944Z,59.30
2018-02-14T21:10:32.438Z,59.60
2018-02-14T21:13:00.721Z,59.80
2018-02-14T21:15:28.236Z,59.70
2018-02-14T21:17:55.738Z,59.60
2018-02-14T21:20:24.031Z,60.00
2018-02-14T21:22:51.555Z,60.00
2018-02-14T21:25:19.051Z,60.10
2018-02-14T21:27:47.351Z,60.30
2018-02-14T21:30:14.859Z,60.20
2018-02-14T21:32:42.425Z,60.40
2018-02-14T21:35:09.966Z,60.50
2018-02-14T21:37:37.667Z,60.40
2018-02-14T21:40:06.264Z,60.40
2018-02-14T21:42:33.789Z,60.40
2018-02-14T21:45:01.327Z,60.50
2018-02-14T21:47:28.961Z,60.50
2018-02-14T21:49:56.492Z,60.40
2018-02-14T21:52:24.055Z,60.10
2018-02-14T21:54:51.562Z,60.30
2018-02-14T21:57:19.081Z,60.40
2018-02-14T21:59:47.380Z,60.60
2018-02-14T22:02:14.911Z,60.50
2018-02-14T22:04:42.468Z,60.70
2018-02-14T22:07:10.088Z,60.80
2018-02-14T22:09:37.591Z,60.60
2018-02-14T22:12:05.876Z,60.60
2018-02-14T22:14:33.405Z,60.50
2018-02-14T22:17:00.960Z,60.80
2018-02-14T22:19:28.542Z,60.90
2018-02-14T22:21:56.099Z,60.70
2018-02-14T22:24:23.665Z,60.70
2018-02-14T22:26:51.176Z,61.60
2018-02-14T22:29:18.768Z,61.10
2018-02-14T22:31:46.482Z,60.90
2018-02-14T22:34:14.116Z,61.10
2018-02-14T22:36:41.672Z,61.30
2018-02-14T22:39:09.267Z,61.40
2018-02-14T22:41:36.833Z,61.30
2018-02-14T22:44:04.341Z,61.40
2018-02-14T22:46:31.922Z,61.30
2018-02-14T22:49:00.234Z,61.60
2018-02-14T22:51:27.774Z,61.50
2018-02-14T22:53:55.375Z,61.60
2018-02-14T22:56:22.994Z,62.00
2018-02-14T22:58:50.592Z,61.70
2018-02-14T23:01:18.302Z,61.80
2018-02-14T23:03:45.914Z,62.10
2018-02-14T23:06:13.514Z,61.80
2018-02-14T23:08:41.078Z,62.00
2018-02-14T23:11:08.662Z,62.20
2018-02-14T23:13:36.980Z,62.40
2018-02-14T23:16:04.538Z,62.40
2018-02-14T23:18:32.192Z,62.10
2018-02-14T23:20:59.764Z,62.30
2018-02-14T23:23:27.331Z,62.30
2018-02-14T23:25:54.892Z,62.10
2018-02-14T23:28:22.396Z,62.30
2018-02-14T23:30:49.910Z,62.60
2018-02-14T23:33:17.454Z,62.10
2018-02-14T23:35:45.234Z,62.40
2018-02-14T23:38:12.828Z,62.60
2018-02-14T23:40:40.366Z,62.80
2018-02-14T23:43:07.998Z,62.50
2018-02-14T23:45:35.638Z,62.70
2018-02-14T23:48:03.281Z,62.70
2018-02-14T23:50:30.866Z,62.50
2018-02-14T23:52:59.271Z,62.50
2018-02-14T23:55:26.895Z,62.60
2018-02-14T23:57:54.623Z,62.30
